createdAt,value
2024-02-03T00:07:19.792Z,6.10
2024-02-03T00:29:51.996Z,7.70
2024-02-03T00:52:24.174Z,9.38
2024-02-03T01:14:56.482Z,7.07
2024-02-03T01:37:29.049Z,6.60
2024-02-03T02:00:02.573Z,6.10
2024-02-03T02:22:41.521Z,4.88
2024-02-03T02:45:14.177Z,7.25
2024-02-03T03:07:46.889Z,9.95
2024-02-03T03:30:19.032Z,5.80
2024-02-03T03:52:51.581Z,6.28
2024-02-03T04:15:23.746Z,4.43
2024-02-03T04:37:56.794Z,6.70
2024-02-03T05:00:29.040Z,4.95
2024-02-03T05:23:01.996Z,7.20
2024-02-03T05:45:34.133Z,3.78
2024-02-03T06:08:06.869Z,3.28
2024-02-03T06:30:39.251Z,5.78
2024-02-03T06:53:12.010Z,5.00
2024-02-03T07:15:45.344Z,5.38
2024-02-03T07:38:17.579Z,3.47
2024-02-03T08:00:50.132Z,4.72
2024-02-03T08:23:22.959Z,3.50
2024-02-03T08:45:55.774Z,5.53
2024-02-03T09:08:28.150Z,5.60
2024-02-03T09:31:01.136Z,4.22
2024-02-03T09:53:34.565Z,4.63
2024-02-03T10:16:09.028Z,3.28
2024-02-03T10:38:42.565Z,3.30
2024-02-03T11:01:18.897Z,2.00
2024-02-03T11:23:51.742Z,3.28
2024-02-03T11:46:25.236Z,4.68
2024-02-03T12:08:57.843Z,2.85
2024-02-03T12:31:30.363Z,2.80
2024-02-03T12:54:03.447Z,2.92
2024-02-03T13:16:35.669Z,3.70
2024-02-03T13:39:07.978Z,2.88
2024-02-03T14:01:40.242Z,3.17
2024-02-03T14:24:13.248Z,3.05
2024-02-03T14:46:45.584Z,3.00
2024-02-03T15:09:17.986Z,2.53
2024-02-03T15:31:50.880Z,2.42
2024-02-03T15:54:23.240Z,1.42
2024-02-03T16:16:55.731Z,1.90
2024-02-03T16:39:30.302Z,2.30
2024-02-03T17:02:03.299Z,1.27
2024-02-03T17:24:35.536Z,1.52
2024-02-03T17:47:07.939Z,3.45
2024-02-03T18:09:40.232Z,1.95
2024-02-03T18:32:12.428Z,2.00
2024-02-03T18:54:44.832Z,2.22
2024-02-03T19:17:17.105Z,1.88
2024-02-03T19:39:49.463Z,1.98
2024-02-03T20:02:22.148Z,2.00
2024-02-03T20:24:54.434Z,2.13
2024-02-03T20:47:26.803Z,1.60
2024-02-03T21:09:59.221Z,4.13
2024-02-03T21:32:31.545Z,1.73
2024-02-03T21:55:04.066Z,1.38
2024-02-03T22:17:36.705Z,3.30
2024-02-03T23:02:42.921Z,1.45
2024-02-03T23:25:15.903Z,2.15
2024-02-03T23:47:48.168Z,1.60
